createdAt,value
2018-07-04T00:00:32.707Z,0
2018-07-04T00:01:37.609Z,0
2018-07-04T00:02:42.486Z,0
2018-07-04T00:03:47.718Z,0
2018-07-04T00:04:53.155Z,0
2018-07-04T00:05:58.621Z,0
2018-07-04T00:07:04.041Z,0
2018-07-04T00:08:09.495Z,0
2018-07-04T00:09:14.710Z,0
2018-07-04T00:10:20.309Z,0
2018-07-04T00:11:25.755Z,0
2018-07-04T00:12:31.119Z,0
2018-07-04T00:13:36.300Z,0
2018-07-04T00:14:41.742Z,0
2018-07-04T00:15:47.161Z,0
2018-07-04T00:16:52.616Z,0
2018-07-04T00:17:57.793Z,0
2018-07-04T00:19:03.345Z,0
2018-07-04T00:20:08.224Z,0
2018-07-04T00:21:13.664Z,0
2018-07-04T00:22:18.945Z,0
2018-07-04T00:23:24.399Z,0
2018-07-04T00:24:30.292Z,0
2018-07-04T00:25:35.231Z,0
2018-07-04T00:26:40.781Z,0
2018-07-04T00:27:46.485Z,0
2018-07-04T00:28:51.918Z,0
2018-07-04T00:29:57.087Z,0
2018-07-04T00:31:02.231Z,0
2018-07-04T00:32:07.112Z,0
2018-07-04T00:33:12.565Z,0
2018-07-04T00:34:18.305Z,0
2018-07-04T00:35:23.478Z,0
2018-07-04T00:36:29.057Z,0
2018-07-04T00:37:34.509Z,0
2018-07-04T00:38:39.950Z,0
2018-07-04T00:39:45.517Z,0
2018-07-04T00:40:50.962Z,0
2018-07-04T00:41:56.129Z,0
2018-07-04T00:43:01.302Z,0
2018-07-04T00:44:06.464Z,0
2018-07-04T00:45:11.645Z,0
2018-07-04T00:46:17.344Z,0
2018-07-04T00:47:22.795Z,0
2018-07-04T00:48:28.942Z,0
2018-07-04T00:49:34.388Z,0
2018-07-04T00:50:39.866Z,0
2018-07-04T00:51:45.656Z,0
2018-07-04T00:52:51.104Z,0
2018-07-04T00:53:56.003Z,0
2018-07-04T00:55:01.404Z,0
2018-07-04T00:56:06.298Z,0
2018-07-04T00:57:11.159Z,0
2018-07-04T00:58:16.712Z,0
2018-07-04T00:59:22.152Z,0
2018-07-04T01:00:27.942Z,0
2018-07-04T01:01:33.130Z,0
2018-07-04T01:02:38.021Z,0
2018-07-04T01:03:43.446Z,0
2018-07-04T01:04:48.041Z,0
2018-07-04T01:05:53.499Z,0
2018-07-04T01:06:59.293Z,0
2018-07-04T01:08:04.753Z,0
2018-07-04T01:09:09.944Z,0
2018-07-04T01:10:15.626Z,0
2018-07-04T01:11:21.074Z,0
2018-07-04T01:12:41.414Z,0
2018-07-04T01:13:46.889Z,0
2018-07-04T01:14:52.361Z,0
2018-07-04T01:15:58.048Z,0
2018-07-04T01:17:03.200Z,0
2018-07-04T01:18:08.372Z,0
2018-07-04T01:19:13.499Z,0
2018-07-04T01:20:18.965Z,0
2018-07-04T01:21:24.117Z,0
2018-07-04T01:22:44.618Z,0
2018-07-04T01:23:50.060Z,0
2018-07-04T01:24:55.793Z,0
2018-07-04T01:26:00.969Z,0
2018-07-04T01:27:05.548Z,0
2018-07-04T01:28:11.076Z,0
2018-07-04T01:29:16.238Z,0
2018-07-04T01:30:21.689Z,0
2018-07-04T01:31:42.043Z,0
2018-07-04T01:32:46.910Z,0
2018-07-04T01:33:52.481Z,0
2018-07-04T01:34:57.659Z,0
2018-07-04T01:36:03.113Z,0
2018-07-04T01:37:08.348Z,0
2018-07-04T01:38:13.783Z,0
2018-07-04T01:39:18.939Z,0
2018-07-04T01:40:24.177Z,0
2018-07-04T01:41:29.058Z,0
2018-07-04T01:42:34.190Z,0
2018-07-04T01:43:39.625Z,0
2018-07-04T01:44:45.070Z,0
2018-07-04T01:45:50.759Z,0
2018-07-04T01:46:56.208Z,0
2018-07-04T01:48:01.650Z,0
2018-07-04T01:49:07.496Z,0
2018-07-04T01:50:12.951Z,0
2018-07-04T01:51:18.096Z,0
2018-07-04T01:52:23.545Z,0
2018-07-04T01:53:29.012Z,0
2018-07-04T01:54:34.431Z,0
2018-07-04T01:55:39.586Z,0
2018-07-04T01:56:44.776Z,0
2018-07-04T01:57:50.670Z,0
2018-07-04T01:58:56.125Z,0
2018-07-04T02:00:01.573Z,0
2018-07-04T02:01:06.985Z,0
2018-07-04T02:02:12.453Z,0
2018-07-04T02:03:17.330Z,0
2018-07-04T02:04:22.728Z,0
2018-07-04T02:05:27.534Z,0
2018-07-04T02:06:33.230Z,0
2018-07-04T02:07:38.665Z,0
2018-07-04T02:08:43.557Z,0
2018-07-04T02:09:49.605Z,0
2018-07-04T02:10:55.046Z,0
2018-07-04T02:12:00.493Z,0
2018-07-04T02:13:05.997Z,0
2018-07-04T02:14:11.178Z,0
2018-07-04T02:15:16.350Z,0
2018-07-04T02:16:22.036Z,0
2018-07-04T02:17:27.218Z,0
2018-07-04T02:18:33.006Z,0
2018-07-04T02:19:37.881Z,0
2018-07-04T02:20:43.035Z,0
2018-07-04T02:21:48.756Z,0
2018-07-04T02:22:53.627Z,0
2018-07-04T02:23:58.798Z,0
2018-07-04T02:25:04.228Z,0
2018-07-04T02:26:09.408Z,0
2018-07-04T02:27:14.567Z,0
2018-07-04T02:28:20.259Z,0
2018-07-04T02:29:25.153Z,0
2018-07-04T02:30:30.469Z,0
2018-07-04T02:31:35.362Z,0
2018-07-04T02:32:40.530Z,0
2018-07-04T02:33:46.234Z,0
2018-07-04T02:34:51.672Z,0
2018-07-04T02:35:56.837Z,0
2018-07-04T02:37:02.688Z,0
2018-07-04T02:38:07.577Z,0
2018-07-04T02:39:12.762Z,0
2018-07-04T02:40:18.233Z,0
2018-07-04T02:41:23.394Z,0
2018-07-04T02:42:28.897Z,0
2018-07-04T02:43:34.356Z,0
2018-07-04T02:44:39.804Z,0
2018-07-04T02:45:45.221Z,0
2018-07-04T02:46:50.657Z,0
2018-07-04T02:47:56.131Z,0
2018-07-04T02:49:01.691Z,0
2018-07-04T02:50:06.301Z,0
2018-07-04T02:51:11.181Z,0
2018-07-04T02:52:16.869Z,0
2018-07-04T02:53:22.053Z,0
2018-07-04T02:54:27.851Z,0
2018-07-04T02:55:33.052Z,0
2018-07-04T02:56:37.943Z,0
2018-07-04T02:57:43.375Z,0
2018-07-04T02:58:48.535Z,0
2018-07-04T02:59:53.414Z,0
2018-07-04T03:00:58.837Z,0
2018-07-04T03:02:03.140Z,0
2018-07-04T03:03:08.290Z,0
2018-07-04T03:04:13.475Z,0
2018-07-04T03:05:18.934Z,0
2018-07-04T03:07:44.754Z,0
2018-07-04T03:08:49.927Z,0
2018-07-04T03:09:55.192Z,0
2018-07-04T03:11:00.347Z,0
2018-07-04T03:12:05.507Z,0
2018-07-04T03:13:10.931Z,0
2018-07-04T03:14:16.370Z,0
2018-07-04T03:15:21.530Z,0
2018-07-04T03:16:41.966Z,0
2018-07-04T03:17:47.177Z,0
2018-07-04T03:18:52.868Z,0
2018-07-04T03:19:58.049Z,0
2018-07-04T03:21:03.211Z,0
2018-07-04T03:22:08.615Z,0
2018-07-04T03:23:13.802Z,0
2018-07-04T03:24:18.960Z,0
2018-07-04T03:25:24.658Z,6
2018-07-04T03:26:29.551Z,6
2018-07-04T03:27:34.840Z,6
2018-07-04T03:28:39.434Z,6
2018-07-04T03:29:44.890Z,6
2018-07-04T03:30:50.713Z,24
2018-07-04T03:31:56.161Z,24
2018-07-04T03:33:01.655Z,24
2018-07-04T03:34:07.273Z,24
2018-07-04T03:35:12.442Z,24
2018-07-04T03:36:17.595Z,24
2018-07-04T03:37:23.008Z,24
2018-07-04T03:38:28.170Z,24
2018-07-04T03:39:33.502Z,40
2018-07-04T03:40:38.955Z,40
2018-07-04T03:41:44.127Z,40
2018-07-04T03:42:49.960Z,40
2018-07-04T03:43:55.425Z,40
2018-07-04T03:45:00.575Z,40
2018-07-04T03:46:05.988Z,55
2018-07-04T03:47:11.160Z,55
2018-07-04T03:48:16.342Z,55
2018-07-04T03:49:21.753Z,31
2018-07-04T03:50:26.637Z,31
2018-07-04T03:51:32.450Z,31
2018-07-04T03:52:37.795Z,48
2018-07-04T03:53:43.272Z,48
2018-07-04T03:54:48.692Z,48
2018-07-04T03:55:54.144Z,48
2018-07-04T03:56:59.588Z,48
2018-07-04T03:58:05.493Z,48
2018-07-04T03:59:11.083Z,48
2018-07-04T04:00:16.534Z,64
2018-07-04T04:01:22.320Z,64
2018-07-04T04:02:27.184Z,64
2018-07-04T04:03:32.748Z,64
2018-07-04T04:04:38.197Z,64
2018-07-04T04:05:43.078Z,64
2018-07-04T04:06:49.036Z,64
2018-07-04T04:07:54.486Z,64
2018-07-04T04:08:59.090Z,64
2018-07-04T04:10:03.960Z,64
2018-07-04T04:11:09.401Z,80
2018-07-04T04:12:14.307Z,80
2018-07-04T04:13:20.010Z,80
2018-07-04T04:14:25.180Z,80
2018-07-04T04:15:30.763Z,80
2018-07-04T04:16:35.655Z,80
2018-07-04T04:17:41.103Z,96
2018-07-04T04:18:46.797Z,96
2018-07-04T04:19:52.083Z,72
2018-07-04T04:20:57.471Z,72
2018-07-04T04:22:02.849Z,72
2018-07-04T04:23:08.295Z,72
2018-07-04T04:24:13.762Z,72
2018-07-04T04:25:19.322Z,88
2018-07-04T04:26:24.789Z,88
2018-07-04T04:27:30.787Z,88
2018-07-04T04:28:36.017Z,88
2018-07-04T04:29:41.456Z,88
2018-07-04T04:30:47.409Z,104
2018-07-04T04:31:52.851Z,104
2018-07-04T04:32:58.328Z,104
2018-07-04T04:34:02.875Z,104
2018-07-04T04:35:08.047Z,88
2018-07-04T04:36:13.245Z,88
2018-07-04T04:37:18.737Z,88
2018-07-04T04:38:24.179Z,88
2018-07-04T04:39:29.055Z,88
2018-07-04T04:40:33.958Z,88
2018-07-04T04:41:39.403Z,88
2018-07-04T04:42:44.831Z,88
2018-07-04T04:43:50.269Z,88
2018-07-04T04:44:55.436Z,88
2018-07-04T04:46:01.155Z,96
2018-07-04T04:47:05.478Z,96
2018-07-04T04:48:10.633Z,96
2018-07-04T04:49:16.482Z,96
2018-07-04T04:50:21.699Z,111
2018-07-04T04:51:26.982Z,88
2018-07-04T04:52:32.460Z,104
2018-07-04T04:53:37.906Z,88
2018-07-04T04:54:43.696Z,121
2018-07-04T04:55:48.924Z,121
2018-07-04T04:56:54.368Z,136
2018-07-04T04:57:59.880Z,112
2018-07-04T04:59:05.321Z,112
2018-07-04T05:00:10.776Z,136
2018-07-04T05:01:16.197Z,112
2018-07-04T05:02:21.634Z,112
2018-07-04T05:03:27.739Z,112
2018-07-04T05:04:32.893Z,136
2018-07-04T05:05:38.349Z,121
2018-07-04T05:06:43.907Z,121
2018-07-04T05:07:49.226Z,104
2018-07-04T05:08:54.403Z,104
2018-07-04T05:09:59.915Z,104
2018-07-04T05:11:04.525Z,104
2018-07-04T05:12:09.694Z,136
2018-07-04T05:13:15.392Z,128
2018-07-04T05:14:20.832Z,128
2018-07-04T05:15:40.922Z,145
2018-07-04T05:16:46.363Z,145
2018-07-04T05:17:51.816Z,145
2018-07-04T05:18:57.502Z,145
2018-07-04T05:20:02.672Z,145
2018-07-04T05:21:07.255Z,145
2018-07-04T05:22:12.509Z,145
2018-07-04T05:23:17.952Z,161
2018-07-04T05:24:23.392Z,161
2018-07-04T05:25:29.379Z,161
2018-07-04T05:26:34.253Z,136
2018-07-04T05:27:39.522Z,161
2018-07-04T05:28:44.963Z,161
2018-07-04T05:29:50.411Z,152
2018-07-04T05:30:56.311Z,152
2018-07-04T05:32:01.504Z,152
2018-07-04T05:33:06.670Z,169
2018-07-04T05:34:12.368Z,169
2018-07-04T05:35:17.912Z,152
2018-07-04T05:36:23.071Z,152
2018-07-04T05:37:30.292Z,169
2018-07-04T05:38:35.730Z,169
2018-07-04T05:39:41.526Z,169
2018-07-04T05:40:47.353Z,169
2018-07-04T05:41:52.494Z,169
2018-07-04T05:42:58.077Z,169
2018-07-04T05:44:02.816Z,169
2018-07-04T05:45:07.982Z,152
2018-07-04T05:46:13.141Z,145
2018-07-04T05:47:18.590Z,136
2018-07-04T05:48:24.033Z,128
2018-07-04T05:49:44.480Z,136
2018-07-04T05:50:49.644Z,121
2018-07-04T05:51:55.483Z,104
2018-07-04T05:53:00.655Z,104
2018-07-04T05:54:06.170Z,104
2018-07-04T05:55:11.584Z,104
2018-07-04T05:56:16.914Z,104
2018-07-04T05:57:22.280Z,121
2018-07-04T05:58:28.179Z,128
2018-07-04T05:59:33.627Z,151
2018-07-04T06:00:39.317Z,161
2018-07-04T06:01:44.490Z,185
2018-07-04T06:02:50.289Z,201
2018-07-04T06:03:55.834Z,201
2018-07-04T06:05:01.018Z,201
2018-07-04T06:06:05.896Z,201
2018-07-04T06:07:11.402Z,176
2018-07-04T06:08:16.566Z,176
2018-07-04T06:09:22.027Z,192
2018-07-04T06:10:27.363Z,192
2018-07-04T06:11:32.831Z,192
2018-07-04T06:12:38.728Z,192
2018-07-04T06:13:43.910Z,192
2018-07-04T06:14:49.358Z,192
2018-07-04T06:15:55.053Z,192
2018-07-04T06:17:00.415Z,192
2018-07-04T06:18:05.380Z,209
2018-07-04T06:19:11.108Z,209
2018-07-04T06:20:16.270Z,209
2018-07-04T06:21:21.709Z,209
2018-07-04T06:22:27.543Z,209
2018-07-04T06:23:32.433Z,209
2018-07-04T06:24:37.868Z,192
2018-07-04T06:25:43.106Z,192
2018-07-04T06:26:48.542Z,209
2018-07-04T06:27:53.669Z,209
2018-07-04T06:28:58.572Z,209
2018-07-04T06:30:03.436Z,209
2018-07-04T06:31:08.547Z,225
2018-07-04T06:32:14.011Z,225
2018-07-04T06:33:19.197Z,225
2018-07-04T06:34:24.723Z,225
2018-07-04T06:35:29.651Z,225
2018-07-04T06:36:34.703Z,225
2018-07-04T06:37:39.865Z,216
2018-07-04T06:38:45.308Z,216
2018-07-04T06:39:51.000Z,216
2018-07-04T06:40:56.450Z,216
2018-07-04T06:42:01.605Z,216
2018-07-04T06:43:06.755Z,225
2018-07-04T06:44:11.935Z,200
2018-07-04T06:45:17.370Z,200
2018-07-04T06:46:22.788Z,225
2018-07-04T06:47:27.939Z,209
2018-07-04T06:48:33.495Z,225
2018-07-04T06:49:38.365Z,209
2018-07-04T06:50:43.740Z,209
2018-07-04T06:51:48.882Z,225
2018-07-04T06:52:54.062Z,225
2018-07-04T06:53:58.948Z,225
2018-07-04T06:55:04.369Z,200
2018-07-04T06:56:09.239Z,225
2018-07-04T06:57:15.019Z,225
2018-07-04T06:58:20.595Z,225
2018-07-04T06:59:25.517Z,209
2018-07-04T07:00:30.927Z,209
2018-07-04T07:01:36.080Z,209
2018-07-04T07:02:41.248Z,225
2018-07-04T07:03:46.681Z,225
2018-07-04T07:04:52.122Z,216
2018-07-04T07:05:57.302Z,233
2018-07-04T07:07:02.731Z,233
2018-07-04T07:08:07.417Z,233
2018-07-04T07:09:12.898Z,233
2018-07-04T07:10:18.354Z,233
2018-07-04T07:11:23.230Z,249
2018-07-04T07:12:28.900Z,249
2018-07-04T07:13:33.779Z,249
2018-07-04T07:14:39.249Z,249
2018-07-04T07:15:44.944Z,240
2018-07-04T07:16:50.105Z,240
2018-07-04T07:17:55.273Z,240
2018-07-04T07:19:00.699Z,240
2018-07-04T07:20:05.861Z,257
2018-07-04T07:21:11.496Z,257
2018-07-04T07:22:16.777Z,257
2018-07-04T07:23:22.239Z,257
2018-07-04T07:24:27.747Z,273
2018-07-04T07:25:33.084Z,273
2018-07-04T07:26:38.250Z,273
2018-07-04T07:27:43.844Z,264
2018-07-04T07:28:49.359Z,264
2018-07-04T07:29:55.205Z,264
2018-07-04T07:31:00.899Z,264
2018-07-04T07:32:06.215Z,280
2018-07-04T07:33:11.651Z,280
2018-07-04T07:34:17.725Z,280
2018-07-04T07:35:23.394Z,280
2018-07-04T07:36:29.234Z,297
2018-07-04T07:37:34.423Z,271
2018-07-04T07:38:40.031Z,288
2018-07-04T07:39:46.031Z,288
2018-07-04T07:40:51.188Z,288
2018-07-04T07:41:56.391Z,288
2018-07-04T07:43:01.667Z,288
2018-07-04T07:44:06.560Z,304
2018-07-04T07:45:11.742Z,304
2018-07-04T07:46:17.572Z,304
2018-07-04T07:47:22.735Z,304
2018-07-04T07:48:28.171Z,304
2018-07-04T07:49:33.617Z,304
2018-07-04T07:50:38.780Z,321
2018-07-04T07:51:43.341Z,321
2018-07-04T07:52:48.785Z,321
2018-07-04T07:53:54.222Z,321
2018-07-04T07:54:59.965Z,295
2018-07-04T07:56:05.409Z,295
2018-07-04T07:57:10.566Z,312
2018-07-04T07:58:16.392Z,312
2018-07-04T07:59:21.827Z,312
2018-07-04T08:00:27.649Z,312
2018-07-04T08:01:32.828Z,312
2018-07-04T08:02:37.727Z,295
2018-07-04T08:03:42.611Z,321
2018-07-04T08:04:48.090Z,321
2018-07-04T08:05:52.567Z,312
2018-07-04T08:06:58.534Z,328
2018-07-04T08:08:03.147Z,328
2018-07-04T08:09:08.588Z,328
2018-07-04T08:10:14.295Z,312
2018-07-04T08:11:19.756Z,312
2018-07-04T08:12:40.253Z,328
2018-07-04T08:13:45.774Z,295
2018-07-04T08:14:51.210Z,319
2018-07-04T08:15:56.908Z,319
2018-07-04T08:17:02.071Z,319
2018-07-04T08:18:06.666Z,319
2018-07-04T08:19:11.651Z,352
2018-07-04T08:20:16.806Z,352
2018-07-04T08:21:21.988Z,352
2018-07-04T08:22:27.652Z,359
2018-07-04T08:23:32.523Z,376
2018-07-04T08:24:37.748Z,359
2018-07-04T08:25:43.414Z,376
2018-07-04T08:26:48.582Z,376
2018-07-04T08:27:53.993Z,376
2018-07-04T08:28:59.455Z,376
2018-07-04T08:30:05.247Z,376
2018-07-04T08:31:10.351Z,376
2018-07-04T08:32:15.220Z,367
2018-07-04T08:33:20.405Z,383
2018-07-04T08:34:25.823Z,367
2018-07-04T08:35:30.997Z,400
2018-07-04T08:36:36.695Z,374
2018-07-04T08:37:42.375Z,383
2018-07-04T08:38:47.820Z,335
2018-07-04T08:39:53.063Z,376
2018-07-04T08:40:57.939Z,288
2018-07-04T08:42:02.534Z,280
2018-07-04T08:43:07.671Z,264
2018-07-04T08:44:12.833Z,273
2018-07-04T08:45:18.292Z,273
2018-07-04T08:46:23.416Z,273
2018-07-04T08:47:28.291Z,264
2018-07-04T08:48:34.015Z,297
2018-07-04T08:49:39.194Z,288
2018-07-04T08:50:44.780Z,280
2018-07-04T08:51:50.752Z,264
2018-07-04T08:52:56.464Z,264
2018-07-04T08:54:02.206Z,264
2018-07-04T08:55:06.779Z,280
2018-07-04T08:56:11.935Z,297
2018-07-04T08:57:17.101Z,288
2018-07-04T08:58:23.354Z,304
2018-07-04T08:59:29.157Z,321
2018-07-04T09:00:34.514Z,321
2018-07-04T09:01:39.379Z,321
2018-07-04T09:02:44.255Z,295
2018-07-04T09:03:49.952Z,368
2018-07-04T09:04:55.111Z,431
2018-07-04T09:06:00.601Z,407
2018-07-04T09:07:06.026Z,390
2018-07-04T09:08:11.467Z,328
2018-07-04T09:09:16.907Z,335
2018-07-04T09:10:22.844Z,344
2018-07-04T09:11:28.041Z,335
2018-07-04T09:12:33.613Z,359
2018-07-04T09:13:38.780Z,414
2018-07-04T09:14:44.246Z,383
2018-07-04T09:15:49.945Z,352
2018-07-04T09:16:55.394Z,344
2018-07-04T09:18:01.036Z,312
2018-07-04T09:19:06.372Z,295
2018-07-04T09:20:11.517Z,279
2018-07-04T09:21:16.681Z,295
2018-07-04T09:22:21.894Z,304
2018-07-04T09:23:26.797Z,288
2018-07-04T09:24:32.622Z,288
2018-07-04T09:25:38.200Z,288
2018-07-04T09:26:43.570Z,288
2018-07-04T09:27:48.880Z,288
2018-07-04T09:28:54.040Z,288
2018-07-04T09:29:59.709Z,288
2018-07-04T09:31:04.910Z,288
2018-07-04T09:32:10.271Z,288
2018-07-04T09:33:15.375Z,304
2018-07-04T09:34:21.017Z,304
2018-07-04T09:35:26.457Z,312
2018-07-04T09:36:31.902Z,312
2018-07-04T09:37:37.525Z,328
2018-07-04T09:38:42.703Z,312
2018-07-04T09:39:47.996Z,312
2018-07-04T09:40:53.438Z,295
2018-07-04T09:41:59.039Z,295
2018-07-04T09:43:03.649Z,312
2018-07-04T09:44:09.090Z,295
2018-07-04T09:45:14.242Z,304
2018-07-04T09:46:19.972Z,288
2018-07-04T09:47:25.435Z,271
2018-07-04T09:48:30.855Z,280
2018-07-04T09:49:36.412Z,280
2018-07-04T09:50:41.717Z,280
2018-07-04T09:51:46.972Z,280
2018-07-04T09:52:51.855Z,280
2018-07-04T09:53:57.016Z,297
2018-07-04T09:55:01.715Z,297
2018-07-04T09:56:06.906Z,297
2018-07-04T09:57:12.060Z,271
2018-07-04T09:58:17.206Z,271
2018-07-04T09:59:22.658Z,271
2018-07-04T10:00:28.554Z,297
2018-07-04T10:01:33.476Z,288
2018-07-04T10:02:38.661Z,383
2018-07-04T10:03:44.304Z,335
2018-07-04T10:04:49.759Z,328
2018-07-04T10:05:55.201Z,295
2018-07-04T10:07:00.901Z,312
2018-07-04T10:08:06.075Z,344
2018-07-04T10:09:11.556Z,312
2018-07-04T10:10:17.248Z,328
2018-07-04T10:11:22.400Z,312
2018-07-04T10:12:27.817Z,335
2018-07-04T10:13:32.696Z,335
2018-07-04T10:14:37.575Z,368
2018-07-04T10:15:43.053Z,312
2018-07-04T10:16:48.205Z,304
2018-07-04T10:17:53.667Z,304
2018-07-04T10:18:59.466Z,321
2018-07-04T10:20:04.910Z,304
2018-07-04T10:21:10.086Z,321
2018-07-04T10:22:15.213Z,321
2018-07-04T10:23:19.802Z,304
2018-07-04T10:24:39.877Z,321
2018-07-04T10:25:45.497Z,304
2018-07-04T10:26:50.667Z,280
2018-07-04T10:27:56.090Z,264
2018-07-04T10:29:01.154Z,247
2018-07-04T10:30:06.465Z,273
2018-07-04T10:31:11.881Z,273
2018-07-04T10:32:17.046Z,273
2018-07-04T10:33:22.256Z,273
2018-07-04T10:34:28.603Z,273
2018-07-04T10:35:33.201Z,280
2018-07-04T10:36:38.474Z,297
2018-07-04T10:37:43.741Z,295
2018-07-04T10:38:49.183Z,312
2018-07-04T10:39:54.624Z,288
2018-07-04T10:41:00.071Z,328
2018-07-04T10:42:05.348Z,328
2018-07-04T10:43:10.628Z,312
2018-07-04T10:44:15.514Z,350
2018-07-04T10:45:20.420Z,383
2018-07-04T10:46:26.122Z,398
2018-07-04T10:47:31.477Z,407
2018-07-04T10:48:36.992Z,390
2018-07-04T10:49:42.173Z,335
2018-07-04T10:50:47.662Z,312
2018-07-04T10:51:53.372Z,304
2018-07-04T10:52:58.839Z,297
2018-07-04T10:54:03.715Z,319
2018-07-04T10:55:09.168Z,312
2018-07-04T10:56:14.611Z,319
2018-07-04T10:57:19.990Z,343
2018-07-04T10:58:25.841Z,343
2018-07-04T10:59:31.418Z,359
2018-07-04T11:00:37.128Z,352
2018-07-04T11:01:42.611Z,312
2018-07-04T11:02:47.783Z,328
2018-07-04T11:03:53.001Z,344
2018-07-04T11:04:58.449Z,367
2018-07-04T11:06:03.646Z,359
2018-07-04T11:07:08.599Z,367
2018-07-04T11:08:13.755Z,400
2018-07-04T11:09:18.644Z,374
2018-07-04T11:10:24.445Z,390
2018-07-04T11:11:29.523Z,352
2018-07-04T11:12:35.143Z,312
2018-07-04T11:13:40.795Z,288
2018-07-04T11:14:45.980Z,297
2018-07-04T11:15:51.858Z,288
2018-07-04T11:16:57.727Z,321
2018-07-04T11:18:02.307Z,352
2018-07-04T11:19:07.431Z,328
2018-07-04T11:20:12.603Z,312
2018-07-04T11:21:18.085Z,367
2018-07-04T11:22:23.490Z,376
2018-07-04T11:23:28.846Z,414
2018-07-04T11:24:35.060Z,390
2018-07-04T11:25:40.226Z,321
2018-07-04T11:26:45.385Z,328
2018-07-04T11:27:50.795Z,312
2018-07-04T11:28:56.371Z,337
2018-07-04T11:30:01.559Z,335
2018-07-04T11:31:06.709Z,368
2018-07-04T11:32:11.873Z,352
2018-07-04T11:33:17.207Z,344
2018-07-04T11:34:23.073Z,344
2018-07-04T11:35:27.709Z,368
2018-07-04T11:36:33.214Z,335
2018-07-04T11:37:38.133Z,352
2018-07-04T11:38:43.316Z,361
2018-07-04T11:39:48.503Z,361
2018-07-04T11:40:53.700Z,407
2018-07-04T11:41:59.165Z,390
2018-07-04T11:43:04.963Z,390
2018-07-04T11:44:10.663Z,407
2018-07-04T11:45:15.819Z,407
2018-07-04T11:46:21.325Z,390
2018-07-04T11:47:26.500Z,416
2018-07-04T11:48:32.288Z,400
2018-07-04T11:49:37.412Z,392
2018-07-04T11:50:42.446Z,392
2018-07-04T11:51:47.875Z,392
2018-07-04T11:52:52.774Z,392
2018-07-04T11:53:58.249Z,376
2018-07-04T11:55:03.484Z,368
2018-07-04T11:56:08.402Z,312
2018-07-04T11:57:13.843Z,273
2018-07-04T11:58:18.967Z,304
2018-07-04T11:59:24.414Z,359
2018-07-04T12:00:29.332Z,376
2018-07-04T12:01:34.516Z,376
2018-07-04T12:02:39.107Z,361
2018-07-04T12:03:44.811Z,376
2018-07-04T12:04:50.255Z,392
2018-07-04T12:05:55.721Z,368
2018-07-04T12:07:01.417Z,337
2018-07-04T12:08:06.302Z,321
2018-07-04T12:09:11.451Z,337
2018-07-04T12:10:17.469Z,337
2018-07-04T12:11:22.632Z,368
2018-07-04T12:12:28.202Z,376
2018-07-04T12:13:33.116Z,392
2018-07-04T12:14:38.276Z,409
2018-07-04T12:15:43.412Z,392
2018-07-04T12:16:48.939Z,392
2018-07-04T12:17:54.136Z,376
2018-07-04T12:18:59.593Z,376
2018-07-04T12:20:04.752Z,376
2018-07-04T12:21:09.686Z,392
2018-07-04T12:22:15.108Z,361
2018-07-04T12:23:20.265Z,409
2018-07-04T12:24:25.880Z,400
2018-07-04T12:25:31.056Z,416
2018-07-04T12:26:36.739Z,392
2018-07-04T12:27:42.780Z,423
2018-07-04T12:28:47.572Z,423
2018-07-04T12:29:53.036Z,423
2018-07-04T12:30:58.745Z,361
2018-07-04T12:32:04.193Z,416
2018-07-04T12:33:09.276Z,440
2018-07-04T12:34:15.233Z,330
2018-07-04T12:35:20.403Z,383
2018-07-04T12:36:40.510Z,330
2018-07-04T12:37:45.699Z,313
2018-07-04T12:38:50.602Z,330
2018-07-04T12:39:56.377Z,330
2018-07-04T12:41:01.749Z,416
2018-07-04T12:42:06.332Z,376
2018-07-04T12:43:12.022Z,313
2018-07-04T12:44:17.470Z,297
2018-07-04T12:45:22.910Z,297
2018-07-04T12:46:28.385Z,313
2018-07-04T12:47:33.844Z,321
2018-07-04T12:48:38.965Z,337
2018-07-04T12:49:44.475Z,353
2018-07-04T12:50:49.363Z,353
2018-07-04T12:51:54.872Z,353
2018-07-04T12:52:59.751Z,337
2018-07-04T12:54:05.197Z,346
2018-07-04T12:55:11.223Z,330
2018-07-04T12:56:16.094Z,313
2018-07-04T12:57:21.710Z,313
2018-07-04T12:58:27.704Z,313
2018-07-04T12:59:33.219Z,337
2018-07-04T13:00:39.261Z,432
2018-07-04T13:01:44.747Z,416
2018-07-04T13:02:49.647Z,385
2018-07-04T13:03:55.197Z,368
2018-07-04T13:05:00.642Z,353
2018-07-04T13:06:05.546Z,409
2018-07-04T13:07:10.966Z,392
2018-07-04T13:08:16.147Z,409
2018-07-04T13:09:21.793Z,409
2018-07-04T13:10:27.571Z,409
2018-07-04T13:11:32.633Z,392
2018-07-04T13:12:38.343Z,385
2018-07-04T13:13:43.830Z,409
2018-07-04T13:14:49.467Z,409
2018-07-04T13:15:54.996Z,409
2018-07-04T13:17:00.167Z,409
2018-07-04T13:18:05.603Z,392
2018-07-04T13:19:11.375Z,377
2018-07-04T13:20:16.599Z,392
2018-07-04T13:21:22.062Z,377
2018-07-04T13:22:27.462Z,409
2018-07-04T13:23:32.926Z,392
2018-07-04T13:24:38.375Z,400
2018-07-04T13:25:44.021Z,432
2018-07-04T13:26:49.262Z,440
2018-07-04T13:27:54.682Z,432
2018-07-04T13:28:59.554Z,418
2018-07-04T13:30:04.448Z,456
2018-07-04T13:31:09.305Z,418
2018-07-04T13:32:15.503Z,409
2018-07-04T13:33:21.058Z,368
2018-07-04T13:34:26.884Z,385
2018-07-04T13:35:32.328Z,449
2018-07-04T13:36:38.126Z,487
2018-07-04T13:37:43.293Z,504
2018-07-04T13:38:48.737Z,504
2018-07-04T13:39:54.434Z,520
2018-07-04T13:40:59.876Z,520
2018-07-04T13:42:04.487Z,504
2018-07-04T13:43:09.881Z,504
2018-07-04T13:44:15.433Z,497
2018-07-04T13:45:21.222Z,416
2018-07-04T13:46:27.178Z,447
2018-07-04T13:47:32.066Z,361
2018-07-04T13:48:37.746Z,423
2018-07-04T13:49:42.687Z,464
2018-07-04T13:50:47.646Z,455
2018-07-04T13:51:53.092Z,337
2018-07-04T13:52:58.269Z,361
2018-07-04T13:54:02.859Z,337
2018-07-04T13:55:08.305Z,353
2018-07-04T13:56:13.488Z,370
2018-07-04T13:57:18.926Z,626
2018-07-04T13:58:24.264Z,650
2018-07-04T13:59:29.716Z,626
2018-07-04T14:00:35.008Z,612
2018-07-04T14:01:40.168Z,563
2018-07-04T14:02:45.466Z,595
2018-07-04T14:03:52.596Z,571
2018-07-04T14:04:58.443Z,578
2018-07-04T14:06:03.502Z,553
2018-07-04T14:07:08.641Z,569
2018-07-04T14:08:13.829Z,643
2018-07-04T14:09:19.012Z,700
2018-07-04T14:10:24.171Z,676
2018-07-04T14:11:29.630Z,676
2018-07-04T14:12:35.326Z,676
2018-07-04T14:13:40.477Z,635
2018-07-04T14:14:45.382Z,676
2018-07-04T14:15:51.081Z,659
2018-07-04T14:16:56.240Z,676
2018-07-04T14:18:01.394Z,684
2018-07-04T14:19:06.262Z,668
2018-07-04T14:20:11.148Z,668
2018-07-04T14:21:15.750Z,668
2018-07-04T14:22:20.750Z,684
2018-07-04T14:23:25.644Z,668
2018-07-04T14:24:30.800Z,676
2018-07-04T14:25:35.967Z,676
2018-07-04T14:26:41.575Z,659
2018-07-04T14:27:47.018Z,574
2018-07-04T14:28:52.466Z,584
2018-07-04T14:29:57.913Z,664
2018-07-04T14:31:03.712Z,709
2018-07-04T14:32:08.604Z,716
2018-07-04T14:33:13.479Z,732
2018-07-04T14:34:19.270Z,716
2018-07-04T14:35:24.725Z,716
2018-07-04T14:36:29.875Z,716
2018-07-04T14:37:34.780Z,716
2018-07-04T14:38:39.982Z,732
2018-07-04T14:39:45.382Z,732
2018-07-04T14:40:50.560Z,716
2018-07-04T14:41:55.732Z,732
2018-07-04T14:43:01.138Z,716
2018-07-04T14:44:06.580Z,716
2018-07-04T14:45:12.030Z,716
2018-07-04T14:46:17.444Z,716
2018-07-04T14:47:22.630Z,709
2018-07-04T14:48:27.852Z,716
2018-07-04T14:49:33.305Z,716
2018-07-04T14:50:38.762Z,684
2018-07-04T14:51:43.663Z,689
2018-07-04T14:52:48.881Z,689
2018-07-04T14:53:54.331Z,724
2018-07-04T14:55:00.325Z,764
2018-07-04T14:56:04.927Z,771
2018-07-04T14:57:10.385Z,788
2018-07-04T14:58:16.217Z,788
2018-07-04T14:59:21.665Z,788
2018-07-04T15:00:26.893Z,788
2018-07-04T15:01:32.066Z,788
2018-07-04T15:02:36.929Z,797
2018-07-04T15:03:42.627Z,780
2018-07-04T15:04:47.509Z,747
2018-07-04T15:05:52.408Z,756
2018-07-04T15:06:57.647Z,740
2018-07-04T15:08:02.243Z,747
2018-07-04T15:09:06.846Z,747
2018-07-04T15:10:11.416Z,764
2018-07-04T15:11:16.864Z,764
2018-07-04T15:12:22.821Z,740
2018-07-04T15:13:28.390Z,689
2018-07-04T15:14:33.478Z,780
2018-07-04T15:15:38.835Z,739
2018-07-04T15:16:43.997Z,771
2018-07-04T15:17:48.872Z,773
2018-07-04T15:18:54.569Z,689
2018-07-04T15:20:00.024Z,714